Aérodrome :
LOGIN :

S'inscrire | Disclaimer

   EN    FR    IT 

 










Légende :    VFR   VFR Marginal   IFR   IFR Intensif   IFR Très Intensif
Visi : 
Plafond : 
>= 8 km
>= 3000ft
5 à 8 km
1000 à 3000 ft
1500m à 5 km
500 à 1000 ft
800 à 1500m
200 à 500 ft
< 800m
< 200 ft
Symboles :   Orages  Brouillard  Fortes neiges  Fortes précipitations  Vent > 20 kt
SIGMETs :   Divers  Orages  Givrage  Turbulence  Onde Orograph.  Cendres Volcan.







- Altitude de l'aérodrome : 72 ft
- Code IATA : UDE


EHVK - Volkel Airbase

DERNIER METAR :
  • 181725Z AUTO 36007KT 310V020 9999 SCT064 BKN360 14/06 Q1027 BLU

METARs EXPIRÉS :
  • 181655Z AUTO 35005KT 270V020 9999 BKN065 BKN360 15/06 Q1027 BLU
  • 181625Z AUTO 34009KT 300V020 9999 OVC064 15/07 Q1027 BLU
  • 181555Z AUTO 35009KT 310V020 9999 OVC061 16/07 Q1026 BLU
  • 181525Z AUTO 34008KT 300V010 9999 FEW048 17/07 Q1026 BLU
  • 181455Z AUTO 35009KT 9999 BKN063 16/05 Q1026 BLU
  • 181429Z AUTO 35007KT 280V030 9999 BKN052 BKN068 18/04 Q1026 BLU

TAF TAF EHVK
Valide du 18 à 17h jusqu'au 19 à 05h UTC


181623Z 1817/1905 34008KT CAVOK
PROB30 1903/1905 4000 MIFG BR
Pas de NOTAMs connus pour ce terrain.



MET'MAP, la Météo Aéronautique d'un coup d'oeil ! - Copyright ORBIFLY Décembre 2007 - Disclaimer

ORBIFLY MET'MAP TEAM :

Programmation & Développement : Alexandra Zaïnal
Conception & Développement : Baudouin d'Aumeries
Co-Programmation & Développement : Marc-Olivier Méhu
Soutien technique & logistique : Manuel Goepfert

Contact : metmap@orbifly.com




SOURCES & CREDITS :

   NOAA